createdAt,value
2023-03-21T00:00:29.628Z,85.87
2023-03-21T00:05:57.417Z,85.92
2023-03-21T00:11:06.754Z,86.07
2023-03-21T00:16:23.348Z,86.08
2023-03-21T00:21:49.118Z,86.38
2023-03-21T00:27:10.690Z,86.77
2023-03-21T00:32:27.364Z,86.89
2023-03-21T00:37:35.984Z,87.44
2023-03-21T00:42:43.694Z,87.61
2023-03-21T00:47:51.641Z,87.79
2023-03-21T00:52:59.718Z,87.95
2023-03-21T00:58:08.372Z,87.82
2023-03-21T01:14:37.060Z,87.62
2023-03-21T01:19:51.482Z,87.92
2023-03-21T01:25:12.168Z,88.32
2023-03-21T01:30:31.222Z,88.95
2023-03-21T01:35:49.177Z,89.24
2023-03-21T01:41:06.188Z,89.52
2023-03-21T01:46:47.781Z,90.05
2023-03-21T01:52:10.176Z,90.42
2023-03-21T01:57:42.369Z,90.78
2023-03-21T02:02:58.142Z,90.67
2023-03-21T02:08:10.873Z,90.53
2023-03-21T02:13:18.541Z,90.46
2023-03-21T02:18:33.484Z,90.33
2023-03-21T02:24:08.206Z,90.44
2023-03-21T02:29:32.967Z,90.52
2023-03-21T02:34:58.765Z,90.62
2023-03-21T02:40:22.050Z,90.50
2023-03-21T02:45:37.388Z,90.68
2023-03-21T02:50:49.712Z,91.21
2023-03-21T02:55:58.521Z,91.52
2023-03-21T03:01:09.996Z,91.78
2023-03-21T03:06:23.216Z,92.37
2023-03-21T03:11:33.906Z,92.83
2023-03-21T03:16:47.319Z,93.33
2023-03-21T03:22:01.283Z,93.83
2023-03-21T03:27:13.698Z,94.28
2023-03-21T03:32:28.224Z,95.34
2023-03-21T03:37:38.100Z,95.55
2023-03-21T03:42:51.010Z,96.27
2023-03-21T03:48:06.737Z,97.15
2023-03-21T03:53:23.398Z,97.68
2023-03-21T03:58:44.610Z,97.87
2023-03-21T04:04:06.796Z,98.02
2023-03-21T04:09:25.108Z,98.04
2023-03-21T04:14:44.414Z,98.05
2023-03-21T04:19:57.757Z,97.97
2023-03-21T04:25:13.036Z,98.00
2023-03-21T04:30:21.068Z,97.83
2023-03-21T04:35:28.986Z,98.14
2023-03-21T04:40:36.814Z,98.48
2023-03-21T04:45:44.614Z,98.68
2023-03-21T04:50:52.122Z,98.70
2023-03-21T04:56:00.858Z,99.09
2023-03-21T05:01:09.404Z,99.23
2023-03-21T05:06:17.616Z,99.43
2023-03-21T05:11:25.157Z,99.23
2023-03-21T05:16:33.226Z,99.16
2023-03-21T05:21:42.922Z,99.15
2023-03-21T05:26:52.604Z,99.33
2023-03-21T05:32:01.330Z,99.61
2023-03-21T05:37:08.792Z,99.42
2023-03-21T05:42:16.510Z,99.47
2023-03-21T05:47:23.929Z,99.59
2023-03-21T05:52:31.754Z,99.96
2023-03-21T05:57:41.286Z,99.95
2023-03-21T06:02:48.855Z,99.92
2023-03-21T06:07:57.111Z,99.93
2023-03-21T06:13:06.881Z,99.89
2023-03-21T06:18:14.452Z,99.69
2023-03-21T06:23:23.129Z,99.71
2023-03-21T06:28:31.463Z,99.55
2023-03-21T06:33:39.579Z,99.81
2023-03-21T06:38:49.131Z,99.71
2023-03-21T06:43:56.630Z,99.62
2023-03-21T06:49:04.341Z,99.12
2023-03-21T06:54:12.798Z,98.79
2023-03-21T06:59:20.618Z,98.40
2023-03-21T07:04:28.708Z,98.19
2023-03-21T07:09:37.450Z,98.05
2023-03-21T07:14:45.162Z,98.30
2023-03-21T07:19:52.883Z,97.16
2023-03-21T07:25:05.387Z,96.06
2023-03-21T07:30:16.893Z,95.69
2023-03-21T07:35:24.813Z,95.47
2023-03-21T07:40:32.520Z,95.33
2023-03-21T07:45:41.048Z,94.06
2023-03-21T07:50:50.612Z,93.74
2023-03-21T07:55:58.789Z,92.93
2023-03-21T08:01:06.868Z,93.04
2023-03-21T08:06:15.646Z,92.12
2023-03-21T08:11:24.354Z,92.11
2023-03-21T08:16:32.095Z,91.51
2023-03-21T08:21:41.123Z,91.47
2023-03-21T08:26:49.432Z,91.50
2023-03-21T08:31:58.402Z,91.72
2023-03-21T08:37:05.960Z,92.27
2023-03-21T08:42:14.009Z,92.81
2023-03-21T08:47:22.769Z,93.71
2023-03-21T08:52:31.350Z,94.65
2023-03-21T08:57:39.568Z,95.43
2023-03-21T09:02:49.729Z,95.97
2023-03-21T09:07:57.946Z,96.33
2023-03-21T09:13:06.632Z,96.20
2023-03-21T09:18:15.345Z,95.12
2023-03-21T09:23:24.708Z,93.23
2023-03-21T09:28:32.403Z,91.38
2023-03-21T09:33:41.568Z,90.33
2023-03-21T09:38:51.298Z,89.56
2023-03-21T09:44:19.232Z,89.57
2023-03-21T09:49:31.796Z,89.21
2023-03-21T09:54:44.945Z,88.14
2023-03-21T09:59:55.230Z,87.93
2023-03-21T10:05:09.548Z,87.38
2023-03-21T10:10:23.968Z,86.76
2023-03-21T10:15:32.202Z,86.63
2023-03-21T10:20:43.580Z,86.05
2023-03-21T10:25:55.198Z,84.26
2023-03-21T10:31:07.764Z,84.16
2023-03-21T10:36:19.740Z,83.21
2023-03-21T10:41:27.568Z,84.21
2023-03-21T10:46:36.677Z,84.74
2023-03-21T10:51:49.034Z,84.50
2023-03-21T10:57:02.876Z,83.79
2023-03-21T11:02:21.750Z,82.78
2023-03-21T11:07:32.409Z,82.95
2023-03-21T11:12:42.906Z,81.81
2023-03-21T11:17:51.330Z,81.44
2023-03-21T11:22:59.368Z,80.70
2023-03-21T11:28:15.793Z,81.03
2023-03-21T11:33:28.162Z,80.27
2023-03-21T11:38:40.511Z,79.87
2023-03-21T11:43:54.554Z,80.47
2023-03-21T11:49:03.188Z,81.03
2023-03-21T11:54:19.763Z,81.42
2023-03-21T11:59:40.174Z,81.36
2023-03-21T12:04:54.662Z,82.02
2023-03-21T12:10:20.733Z,83.05
2023-03-21T12:15:37.541Z,83.72
2023-03-21T12:20:51.926Z,84.39
2023-03-21T12:26:07.197Z,84.49
2023-03-21T12:31:26.967Z,83.66
2023-03-21T12:37:00.895Z,81.80
2023-03-21T12:42:25.851Z,78.88
2023-03-21T12:47:35.943Z,79.25
2023-03-21T12:52:46.485Z,78.21
2023-03-21T12:58:00.142Z,78.53
2023-03-21T13:03:13.995Z,79.51
2023-03-21T13:08:27.854Z,80.15
2023-03-21T13:13:40.316Z,80.94
2023-03-21T13:19:02.123Z,81.32
2023-03-21T13:24:25.964Z,81.25
2023-03-21T13:29:37.206Z,81.66
2023-03-21T13:34:45.333Z,81.07
2023-03-21T13:39:53.447Z,81.49
2023-03-21T13:45:04.076Z,81.32
2023-03-21T13:50:35.461Z,80.94
2023-03-21T13:55:46.762Z,80.50
2023-03-21T14:01:14.360Z,79.78
2023-03-21T14:06:22.848Z,79.22
2023-03-21T14:11:34.811Z,79.59
2023-03-21T14:16:45.693Z,80.77
2023-03-21T14:21:55.979Z,82.02
2023-03-21T14:27:05.165Z,83.73
2023-03-21T14:32:24.960Z,84.35
2023-03-21T14:37:40.049Z,84.43
2023-03-21T14:42:52.880Z,85.09
2023-03-21T14:48:02.796Z,86.20
2023-03-21T14:53:13.445Z,86.71
2023-03-21T14:58:21.142Z,87.01
2023-03-21T15:03:28.937Z,86.95
2023-03-21T15:08:36.759Z,87.45
2023-03-21T15:13:50.466Z,88.01
2023-03-21T15:18:58.781Z,88.29
2023-03-21T15:24:15.200Z,86.85
2023-03-21T15:29:23.434Z,86.23
2023-03-21T15:34:32.882Z,85.06
2023-03-21T15:39:40.789Z,86.49
2023-03-21T15:44:53.483Z,85.92
2023-03-21T15:50:02.810Z,85.80
2023-03-21T15:55:26.777Z,85.49
2023-03-21T16:00:41.163Z,85.39
2023-03-21T16:06:06.072Z,85.82
2023-03-21T16:11:19.956Z,85.82
2023-03-21T16:16:30.559Z,86.22
2023-03-21T16:21:39.762Z,85.78
2023-03-21T16:26:51.157Z,86.08
2023-03-21T16:31:59.086Z,86.12
2023-03-21T16:37:06.897Z,86.07
2023-03-21T16:42:15.697Z,86.15
2023-03-21T16:47:25.151Z,85.89
2023-03-21T16:52:33.713Z,85.92
2023-03-21T16:57:42.556Z,86.15
2023-03-21T17:02:51.897Z,86.18
2023-03-21T17:08:02.573Z,85.96
2023-03-21T17:13:11.294Z,85.86
2023-03-21T17:18:19.965Z,85.87
2023-03-21T17:23:28.317Z,86.11
2023-03-21T17:28:36.907Z,86.43
2023-03-21T17:33:45.408Z,86.84
2023-03-21T17:38:53.234Z,87.39
2023-03-21T17:44:01.058Z,87.86
2023-03-21T17:49:10.290Z,88.67
2023-03-21T17:54:17.727Z,89.18
2023-03-21T17:59:25.833Z,89.19
2023-03-21T18:04:33.617Z,89.57
2023-03-21T18:09:41.343Z,89.84
2023-03-21T18:14:48.736Z,89.87
2023-03-21T18:19:57.531Z,89.98
2023-03-21T18:25:09.455Z,90.44
2023-03-21T18:30:53.147Z,90.55
2023-03-21T18:35:48.618Z,90.36
2023-03-21T18:40:56.641Z,90.67
2023-03-21T18:46:05.127Z,90.68
2023-03-21T18:51:13.162Z,90.98
2023-03-21T18:57:27.338Z,91.27
2023-03-21T19:01:50.371Z,91.40
2023-03-21T19:06:58.923Z,91.41
2023-03-21T19:12:07.442Z,91.66
2023-03-21T19:18:11.358Z,91.66
2023-03-21T19:22:44.472Z,91.82
2023-03-21T19:27:52.352Z,91.97
2023-03-21T19:33:00.312Z,91.81
2023-03-21T19:38:08.553Z,91.72
2023-03-21T19:43:33.044Z,92.24
2023-03-21T19:48:44.062Z,91.74
2023-03-21T19:53:52.696Z,91.69
2023-03-21T19:59:02.029Z,91.70
2023-03-21T20:04:09.531Z,92.29
2023-03-21T20:09:50.382Z,92.84
2023-03-21T20:14:49.081Z,92.16
2023-03-21T20:19:58.269Z,92.11
2023-03-21T20:25:09.049Z,92.12
2023-03-21T20:30:19.899Z,91.87
2023-03-21T20:36:00.688Z,91.74
2023-03-21T20:49:37.466Z,91.87
2023-03-21T20:54:45.833Z,92.16
2023-03-21T20:59:53.379Z,92.52
2023-03-21T21:10:28.762Z,92.92
2023-03-21T21:15:37.711Z,93.33
2023-03-21T21:20:45.549Z,93.22
2023-03-21T21:25:55.775Z,93.09
2023-03-21T21:31:20.943Z,92.60
2023-03-21T21:36:28.686Z,92.81
2023-03-21T21:41:37.005Z,93.04
2023-03-21T21:46:45.331Z,92.71
2023-03-21T21:51:52.829Z,92.20
2023-03-21T21:57:00.495Z,92.56
2023-03-21T22:02:07.830Z,93.16
2023-03-21T22:07:18.165Z,93.08
2023-03-21T22:12:29.184Z,92.57
2023-03-21T22:17:38.906Z,92.52
2023-03-21T22:22:46.642Z,92.44
2023-03-21T22:27:54.562Z,92.90
2023-03-21T22:33:09.606Z,93.04
2023-03-21T22:38:24.610Z,92.97
2023-03-21T22:43:34.490Z,93.06
2023-03-21T22:48:42.521Z,93.70
2023-03-21T22:53:50.220Z,93.95
2023-03-21T22:59:00.554Z,94.34
2023-03-21T23:04:09.047Z,94.36
2023-03-21T23:09:17.761Z,93.65
2023-03-21T23:14:25.889Z,93.57
2023-03-21T23:19:33.605Z,94.41
2023-03-21T23:24:41.873Z,94.88
2023-03-21T23:29:51.892Z,94.82
2023-03-21T23:34:59.621Z,94.73
2023-03-21T23:40:09.423Z,93.80
2023-03-21T23:45:17.291Z,93.36
2023-03-21T23:50:26.036Z,93.95
2023-03-21T23:55:34.383Z,93.99
